Leonardo Antonio — ILTB2 — position and weather

sailwx.info

Track history (hours):
 
Tides and Currents Weather Stations Pressure Air Temp Water Temp Dewpoint Dewpoint Depression Visibility Wind Speed Wind Dir Waves Ship Positions

Leonardo Antonio

Last reported at 2018-Jan-23 13:38 UTC. Time now 2018-Jan-23 18:11 UTC.
Position N 39°49' E 016°36'.

Length 23 m; draft 3 m.

Type: Fishing. MMSI: 247133570.

Date/timePositionNaut miles runAvg speedWind from/ knotsBaromVisibWave heightAir tempDewpointWater temp
2018-Jan-23 13:38N 39°49' E 016°36'1 7.1
2018-Jan-23 13:30N 39°50' E 016°36'3 1.3
2018-Jan-23 10:57N 39°49' E 016°32'2 2.9
2018-Jan-23 10:23N 39°50' E 016°33'2 1.3
2018-Jan-23 08:36N 39°52' E 016°35'0 3.2
2018-Jan-23 08:28N 39°51' E 016°35'2 3.1
2018-Jan-23 07:57N 39°50' E 016°33'2 2.3
2018-Jan-23 07:07N 39°49' E 016°32'1 1.8
2018-Jan-23 06:49N 39°49' E 016°32'1 3.1
2018-Jan-23 06:27N 39°50' E 016°33'2 3.1
2018-Jan-23 05:49N 39°51' E 016°35'0 1.3
2018-Jan-23 05:29N 39°51' E 016°35'0 0.6
2018-Jan-23 04:57N 39°51' E 016°35'3 0.2
2018-Jan-22 11:41N 39°48' E 016°34'1 2.7
2018-Jan-22 11:12N 39°49' E 016°35'0 0.2
2018-Jan-22 08:58N 39°50' E 016°36'3 0.8
2018-Jan-22 05:32N 39°49' E 016°32'0 2.6
2018-Jan-22 05:31N 39°49' E 016°32'1 2.6
2018-Jan-22 04:58N 39°50' E 016°34'3 2.4
2018-Jan-22 03:53N 39°52' E 016°36'3 1.6
2018-Jan-22 02:00N 39°50' E 016°33'2 2.9
2018-Jan-22 01:26N 39°49' E 016°32'  
2018-Jan-19 15:56N 39°40' E 016°32'3 5.2
2018-Jan-19 15:26N 39°40' E 016°35'9 4.8
2018-Jan-19 13:33N 39°42' E 016°46'0 2.3
2018-Jan-19 13:30N 39°42' E 016°47'5 2.4
2018-Jan-19 11:33N 39°42' E 016°53'1 2.4
2018-Jan-19 11:11N 39°42' E 016°54'4 1.8
2018-Jan-19 09:05N 39°40' E 016°58'0 0.2
2018-Jan-19 08:38N 39°40' E 016°58'1 2.4
2018-Jan-19 08:21N 39°41' E 016°58'1 2.4
2018-Jan-19 07:58N 39°41' E 016°57'5 2.3
2018-Jan-19 05:53N 39°42' E 016°50'1 2.3
2018-Jan-19 05:29N 39°42' E 016°49'1 2.4
2018-Jan-19 04:57N 39°42' E 016°48'2 1.4
2018-Jan-19 03:48N 39°43' E 016°46'1 2.4
2018-Jan-19 03:29N 39°42' E 016°47'1 2.3
2018-Jan-19 02:59N 39°42' E 016°48'1 2.5
2018-Jan-19 02:28N 39°42' E 016°50'1 2.4
2018-Jan-19 01:56N 39°42' E 016°51'2 2.5
2018-Jan-19 01:18N 39°42' E 016°53'5 1.8
2018-Jan-18 22:47N 39°40' E 016°59'1 2.4
2018-Jan-18 22:26N 39°40' E 016°58'1 2.3
2018-Jan-18 22:00N 39°41' E 016°57'5 2.4
2018-Jan-18 19:50N 39°42' E 016°50'1 2.3
2018-Jan-18 19:29N 39°42' E 016°49'5 0.9
2018-Jan-18 13:22N 39°38' E 016°44'0 0.6
2018-Jan-18 12:54N 39°39' E 016°44'4 0.8
2018-Jan-18 07:15N 39°39' E 016°38'0 1.0
2018-Jan-18 06:56N 39°38' E 016°38'0 0.7
2018-Jan-18 06:30N 39°39' E 016°38'1 2.8
2018-Jan-18 06:00N 39°39' E 016°36'2 2.8
2018-Jan-18 05:27N 39°40' E 016°34'1 0.4
2018-Jan-18 02:16N 39°39' E 016°35'1 2.7
2018-Jan-18 02:00N 39°39' E 016°36'1 1.5
2018-Jan-18 01:30N 39°38' E 016°37'1 2.7
2018-Jan-18 01:00N 39°39' E 016°35'  
Track history (hours):
 
Tides and Currents Weather Stations Pressure Air Temp Water Temp Dewpoint Dewpoint Depression Visibility Wind Speed Wind Dir Waves Ship Positions

Leonardo Antonio

Last reported at 2018-Jan-23 13:38 UTC. Time now 2018-Jan-23 18:11 UTC.
Position N 39°49' E 016°36'.

Length 23 m; draft 3 m.

Type: Fishing. MMSI: 247133570.

Date/timePositionNaut miles runAvg speedWind from/ knotsBaromVisibWave heightAir tempDewpointWater temp
2018-Jan-23 13:38N 39°49' E 016°36'1 7.1
2018-Jan-23 13:30N 39°50' E 016°36'3 1.3
2018-Jan-23 10:57N 39°49' E 016°32'2 2.9
2018-Jan-23 10:23N 39°50' E 016°33'2 1.3
2018-Jan-23 08:36N 39°52' E 016°35'0 3.2
2018-Jan-23 08:28N 39°51' E 016°35'2 3.1
2018-Jan-23 07:57N 39°50' E 016°33'2 2.3
2018-Jan-23 07:07N 39°49' E 016°32'1 1.8
2018-Jan-23 06:49N 39°49' E 016°32'1 3.1
2018-Jan-23 06:27N 39°50' E 016°33'2 3.1
2018-Jan-23 05:49N 39°51' E 016°35'0 1.3
2018-Jan-23 05:29N 39°51' E 016°35'0 0.6
2018-Jan-23 04:57N 39°51' E 016°35'3 0.2
2018-Jan-22 11:41N 39°48' E 016°34'1 2.7
2018-Jan-22 11:12N 39°49' E 016°35'0 0.2
2018-Jan-22 08:58N 39°50' E 016°36'3 0.8
2018-Jan-22 05:32N 39°49' E 016°32'0 2.6
2018-Jan-22 05:31N 39°49' E 016°32'1 2.6
2018-Jan-22 04:58N 39°50' E 016°34'3 2.4
2018-Jan-22 03:53N 39°52' E 016°36'3 1.6
2018-Jan-22 02:00N 39°50' E 016°33'2 2.9
2018-Jan-22 01:26N 39°49' E 016°32'  
2018-Jan-19 15:56N 39°40' E 016°32'3 5.2
2018-Jan-19 15:26N 39°40' E 016°35'9 4.8
2018-Jan-19 13:33N 39°42' E 016°46'0 2.3
2018-Jan-19 13:30N 39°42' E 016°47'5 2.4
2018-Jan-19 11:33N 39°42' E 016°53'1 2.4
2018-Jan-19 11:11N 39°42' E 016°54'4 1.8
2018-Jan-19 09:05N 39°40' E 016°58'0 0.2
2018-Jan-19 08:38N 39°40' E 016°58'1 2.4
2018-Jan-19 08:21N 39°41' E 016°58'1 2.4
2018-Jan-19 07:58N 39°41' E 016°57'5 2.3
2018-Jan-19 05:53N 39°42' E 016°50'1 2.3
2018-Jan-19 05:29N 39°42' E 016°49'1 2.4
2018-Jan-19 04:57N 39°42' E 016°48'2 1.4
2018-Jan-19 03:48N 39°43' E 016°46'1 2.4
2018-Jan-19 03:29N 39°42' E 016°47'1 2.3
2018-Jan-19 02:59N 39°42' E 016°48'1 2.5
2018-Jan-19 02:28N 39°42' E 016°50'1 2.4
2018-Jan-19 01:56N 39°42' E 016°51'2 2.5
2018-Jan-19 01:18N 39°42' E 016°53'5 1.8
2018-Jan-18 22:47N 39°40' E 016°59'1 2.4
2018-Jan-18 22:26N 39°40' E 016°58'1 2.3
2018-Jan-18 22:00N 39°41' E 016°57'5 2.4
2018-Jan-18 19:50N 39°42' E 016°50'1 2.3
2018-Jan-18 19:29N 39°42' E 016°49'5 0.9
2018-Jan-18 13:22N 39°38' E 016°44'0 0.6
2018-Jan-18 12:54N 39°39' E 016°44'4 0.8
2018-Jan-18 07:15N 39°39' E 016°38'0 1.0
2018-Jan-18 06:56N 39°38' E 016°38'0 0.7
2018-Jan-18 06:30N 39°39' E 016°38'1 2.8
2018-Jan-18 06:00N 39°39' E 016°36'2 2.8
2018-Jan-18 05:27N 39°40' E 016°34'1 0.4
2018-Jan-18 02:16N 39°39' E 016°35'1 2.7
2018-Jan-18 02:00N 39°39' E 016°36'1 1.5
2018-Jan-18 01:30N 39°38' E 016°37'1 2.7
2018-Jan-18 01:00N 39°39' E 016°35'  

Dump ship's entire track history